Burlington, Maine
Current Conditions -  °F | °C
As of 1:03 PM on Monday 22 Dec 2014 (Local Time) from KMLT Reporting Station
Overcast Overcast  
Wind Chill: 31°   Ceiling: 2700
Heat Index: 31°   Visibility: 10mi
Dew Point: 27°   Wind: 0mph
Humidity: 85%   Direction: NA
Pressure: 30.4"   Gusts: NA
Location:  45.21°N, 68.43°W
Report Text: KMLT 221803Z AUTO 00000KT 10SM SCT010 BKN027 OVC047 M01/M03 A3040 RMK AO2 T10061028
Loading
Personal Weather Stations






























Interactive Weather Map New forecast layout! Learn more

10-Day Weather Forecast

Advertisements
Track Severe Weather on mobile